Time;durP1;ratioP1;P1;durP2;ratioP2;P2;SDS_P1;SDS_P2;PMS_P1;PMS_P2;Temp;Humidity;BMP_temperature;BMP_pressure;BME280_temperature;BME280_humidity;BME280_pressure;Samples;Min_cycle;Max_cycle;Signal;HPM_P1;HPM_P2
2023/02/26 00:00:13;;;;;;;6.82;1.02;;;;;;;5.87;66.54;101962.41;5017580;28;20518;-54
2023/02/26 00:03:01;;;;;;;7.90;1.27;;;;;;;5.88;66.51;101964.03;5028069;28;20507;-46
2023/02/26 00:05:48;;;;;;;5.85;1.30;;;;;;;5.90;66.38;101961.84;5016038;28;20297;-48
2023/02/26 00:08:35;;;;;;;6.72;1.70;;;;;;;5.91;66.16;101957.97;5028834;28;20046;-51
2023/02/26 00:11:22;;;;;;;4.40;1.63;;;;;;;5.93;66.33;101975.03;5012637;28;20045;-49
2023/02/26 00:14:13;;;;;;;6.72;1.27;;;;;;;5.93;65.84;101961.28;5015478;28;20567;-48
2023/02/26 00:17:13;;;;;;;6.15;2.17;;;;;;;5.94;65.78;101974.72;5019864;28;20049;-47
2023/02/26 00:20:01;;;;;;;10.32;2.78;;;;;;;5.94;65.87;101977.47;5025225;28;20050;-55
2023/02/26 00:22:48;;;;;;;4.13;1.58;;;;;;;5.94;65.89;101973.91;5020489;28;20053;-50
2023/02/26 00:25:35;;;;;;;5.20;1.65;;;;;;;5.93;65.61;101978.56;5028602;28;20046;-49
2023/02/26 00:28:22;;;;;;;4.47;0.75;;;;;;;5.95;65.29;101989.31;5029451;28;20049;-47
2023/02/26 00:31:10;;;;;;;1.25;0.60;;;;;;;5.92;65.62;101979.69;5027592;28;20045;-48
2023/02/26 00:33:58;;;;;;;2.50;0.77;;;;;;;5.94;65.69;101984.91;5024039;28;20164;-47
2023/02/26 00:36:57;;;;;;;4.70;1.25;;;;;;;5.92;65.71;101987.94;5029802;28;20456;-48
2023/02/26 00:40:21;;;;;;;4.28;0.98;;;;;;;5.92;65.61;101984.38;5028504;28;20623;-49
2023/02/26 00:43:21;;;;;;;6.55;1.55;;;;;;;5.92;65.71;101987.13;5025854;28;20052;-50
2023/02/26 00:46:14;;;;;;;3.95;1.02;;;;;;;5.91;65.91;101988.22;5028734;28;20411;-48
2023/02/26 00:49:20;;;;;;;2.13;0.70;;;;;;;5.91;65.88;101985.47;5027621;28;20053;-48
2023/02/26 00:52:14;;;;;;;2.00;0.98;;;;;;;5.91;66.00;101990.97;5026099;28;20046;-47
2023/02/26 00:55:01;;;;;;;7.32;1.98;;;;;;;5.89;66.03;101985.75;5010595;28;20041;-48
2023/02/26 00:57:48;;;;;;;6.00;1.77;;;;;;;5.88;66.18;101984.09;5013096;28;20419;-47
2023/02/26 01:00:35;;;;;;;6.43;1.23;;;;;;;5.89;66.18;101984.94;5026853;28;20068;-48
2023/02/26 01:03:22;;;;;;;7.45;1.45;;;;;;;5.88;66.57;101986.03;5018788;28;20045;-48
2023/02/26 01:06:14;;;;;;;6.93;1.33;;;;;;;5.87;66.56;101981.66;5017880;28;20053;-46
2023/02/26 01:09:07;;;;;;;4.60;0.82;;;;;;;5.85;66.57;101981.91;5018113;28;20037;-48
2023/02/26 01:11:56;;;;;;;2.70;0.73;;;;;;;5.82;66.54;101979.72;5015101;28;20049;-48
2023/02/26 01:14:43;;;;;;;4.05;0.75;;;;;;;5.81;66.74;101989.06;5019603;28;20517;-47
2023/02/26 01:17:44;;;;;;;7.47;1.15;;;;;;;5.80;66.77;101984.66;5024686;28;20060;-47
2023/02/26 01:20:42;;;;;;;5.57;1.02;;;;;;;5.77;66.85;101989.94;5018447;28;20048;-49
2023/02/26 01:23:34;;;;;;;3.50;1.20;;;;;;;5.71;66.75;101991.03;5023196;28;20601;-47
2023/02/26 01:26:25;;;;;;;3.95;1.30;;;;;;;5.66;67.04;101999.31;5026255;28;20056;-49
2023/02/26 01:29:13;;;;;;;1.92;0.93;;;;;;;5.58;66.95;101997.16;5012429;28;20046;-47
2023/02/26 01:32:10;;;;;;;4.75;0.60;;;;;;;5.49;66.82;101995.00;5027420;28;20053;-48
2023/02/26 01:35:04;;;;;;;3.28;1.02;;;;;;;5.41;67.07;101992.81;5027113;28;20049;-51
2023/02/26 01:38:27;;;;;;;7.22;1.42;;;;;;;5.35;67.44;101998.59;5011773;28;20057;-51
2023/02/26 01:41:27;;;;;;;1.25;0.60;;;;;;;5.27;67.58;101994.50;5017838;28;20054;-47
2023/02/26 01:44:32;;;;;;;8.10;1.15;;;;;;;5.21;67.30;101992.91;5020437;28;20068;-48
2023/02/26 01:47:38;;;;;;;5.78;1.38;;;;;;;5.18;67.30;101995.38;5026747;28;20049;-47
2023/02/26 01:50:29;;;;;;;4.40;0.65;;;;;;;5.14;67.70;102000.59;5028148;28;20091;-47
2023/02/26 01:53:23;;;;;;;5.13;0.88;;;;;;;5.10;67.89;102002.25;5026214;28;20049;-47
2023/02/26 01:56:18;;;;;;;4.32;1.15;;;;;;;5.06;67.95;102001.16;5021772;28;20050;-47
2023/02/26 01:59:08;;;;;;;4.07;0.57;;;;;;;5.04;67.80;101999.78;5016298;28;20060;-47
2023/02/26 02:01:58;;;;;;;7.47;1.27;;;;;;;5.01;67.93;102001.16;5016540;28;20048;-47
2023/02/26 02:04:46;;;;;;;2.70;0.50;;;;;;;4.99;67.69;102005.28;5020088;28;20407;-48
2023/02/26 02:07:33;;;;;;;2.90;1.00;;;;;;;4.95;67.86;102005.00;5011000;28;20057;-47
2023/02/26 02:10:20;;;;;;;5.28;0.70;;;;;;;4.93;67.88;102012.69;5015716;28;20057;-50
2023/02/26 02:13:16;;;;;;;3.00;0.73;;;;;;;4.92;67.89;102008.34;5012345;28;20412;-48
2023/02/26 02:16:24;;;;;;;1.40;0.77;;;;;;;4.94;68.19;102008.88;5019898;28;20049;-48
2023/02/26 02:19:49;;;;;;;6.05;0.65;;;;;;;5.00;68.26;102012.44;5013621;28;20052;-48
2023/02/26 02:22:39;;;;;;;2.40;0.65;;;;;;;5.06;68.12;102019.53;5012175;28;20443;-48
2023/02/26 02:25:44;;;;;;;4.70;0.60;;;;;;;5.11;67.92;102009.38;5010092;28;20110;-52
2023/02/26 02:28:52;;;;;;;5.30;0.73;;;;;;;5.17;67.90;102012.94;5018506;28;20050;-47
2023/02/26 02:31:57;;;;;;;2.28;0.60;;;;;;;5.23;67.94;102018.16;5013178;28;20056;-52
2023/02/26 02:34:54;;;;;;;2.47;0.30;;;;;;;5.27;68.09;102019.22;5017884;28;20078;-47
2023/02/26 02:38:03;;;;;;;2.75;0.70;;;;;;;5.30;67.88;102021.41;5012271;28;20057;-49
2023/02/26 02:41:00;;;;;;;5.57;0.65;;;;;;;5.34;67.87;102019.75;5006204;28;20062;-47
2023/02/26 02:43:49;;;;;;;2.13;0.43;;;;;;;5.37;67.79;102021.97;5015170;28;20049;-47
2023/02/26 02:46:39;;;;;;;4.38;0.60;;;;;;;5.39;67.56;102017.00;5001286;28;20068;-48
2023/02/26 02:49:46;;;;;;;3.28;0.65;;;;;;;5.41;67.54;102024.94;5011684;28;20096;-47
2023/02/26 02:52:56;;;;;;;2.97;0.75;;;;;;;5.44;67.63;102041.69;5017612;28;20057;-47
2023/02/26 02:55:52;;;;;;;4.72;0.70;;;;;;;5.45;67.60;102046.06;5013456;28;20037;-51
2023/02/26 02:58:45;;;;;;;2.75;1.00;;;;;;;5.45;67.21;102037.03;5019502;28;20486;-47
2023/02/26 03:01:35;;;;;;;6.63;0.85;;;;;;;5.41;67.17;102039.50;5018097;23;20129;-48
2023/02/26 03:04:22;;;;;;;4.00;0.50;;;;;;;5.38;67.12;102042.81;4955557;28;20074;-47
2023/02/26 03:07:09;;;;;;;10.95;0.98;;;;;;;5.34;67.06;102041.72;4959511;28;20061;-49
2023/02/26 03:09:56;;;;;;;1.20;0.38;;;;;;;5.33;66.86;102037.34;4963604;28;20039;-47
2023/02/26 03:12:44;;;;;;;5.03;0.90;;;;;;;5.31;66.66;102035.97;4960971;28;20043;-52
2023/02/26 03:15:34;;;;;;;4.10;0.60;;;;;;;5.31;66.70;102045.03;4963901;28;20061;-47
2023/02/26 03:19:13;;;;;;;3.33;1.08;;;;;;;5.32;66.76;102046.66;4962635;28;20058;-47
2023/02/26 03:22:33;;;;;;;6.78;0.85;;;;;;;5.33;66.80;102044.75;4976133;28;20416;-48
2023/02/26 03:25:31;;;;;;;6.15;0.80;;;;;;;5.34;66.70;102036.25;4962907;28;20047;-49
2023/02/26 03:28:30;;;;;;;5.72;1.08;;;;;;;5.34;66.78;102044.47;4966891;28;20061;-47
2023/02/26 03:31:41;;;;;;;3.00;1.02;;;;;;;5.36;66.61;102041.44;4970078;28;20105;-47
2023/02/26 03:34:40;;;;;;;1.90;0.63;;;;;;;5.35;66.77;102040.63;4971500;28;20050;-48
2023/02/26 03:37:43;;;;;;;4.82;0.70;;;;;;;5.30;66.52;102040.63;4970496;28;20500;-50
2023/02/26 03:40:36;;;;;;;2.90;0.30;;;;;;;5.27;66.30;102041.19;4958176;28;20066;-49
2023/02/26 03:43:34;;;;;;;0.47;0.40;;;;;;;5.25;66.55;102048.06;4951481;29;20059;-47
2023/02/26 03:46:44;;;;;;;4.88;0.40;;;;;;;5.21;66.46;102053.31;4970382;28;20140;-47
2023/02/26 03:49:48;;;;;;;1.83;0.60;;;;;;;5.19;66.36;102060.97;4970007;28;20060;-47
2023/02/26 03:52:39;;;;;;;1.75;0.55;;;;;;;5.23;66.61;102062.06;4970179;28;20070;-47
2023/02/26 03:55:37;;;;;;;4.85;0.70;;;;;;;5.24;66.19;102052.72;4969909;28;20042;-47
2023/02/26 03:58:24;;;;;;;2.15;1.08;;;;;;;5.23;66.23;102056.59;4964620;28;20361;-48
2023/02/26 04:01:20;;;;;;;4.82;0.70;;;;;;;5.22;66.00;102054.94;4962190;28;20059;-48
2023/02/26 04:04:14;;;;;;;4.18;0.55;;;;;;;5.24;66.29;102049.19;4961123;28;20059;-47
2023/02/26 04:07:01;;;;;;;6.15;0.70;;;;;;;5.26;66.27;102055.19;4960017;28;20055;-47
2023/02/26 04:09:50;;;;;;;2.38;0.52;;;;;;;5.28;66.19;102058.47;4959983;28;20043;-47
2023/02/26 04:12:37;;;;;;;1.33;0.73;;;;;;;5.31;66.11;102072.50;4967379;28;20058;-48
2023/02/26 04:15:24;;;;;;;2.65;0.82;;;;;;;5.33;66.38;102061.22;4959543;28;20063;-50
2023/02/26 04:18:11;;;;;;;4.20;0.77;;;;;;;5.34;66.07;102074.69;4966618;28;20046;-49
2023/02/26 04:20:58;;;;;;;2.30;0.63;;;;;;;5.37;66.11;102073.31;4973826;28;20051;-51
2023/02/26 04:23:45;;;;;;;2.30;0.52;;;;;;;5.37;65.97;102074.13;4960661;28;20058;-48
2023/02/26 04:26:32;;;;;;;3.50;0.68;;;;;;;5.38;65.97;102080.44;4963950;28;20062;-47
2023/02/26 04:29:19;;;;;;;4.15;1.27;;;;;;;5.36;65.78;102080.72;4963173;28;20500;-47
2023/02/26 04:32:06;;;;;;;4.95;1.23;;;;;;;5.34;65.57;102088.41;4957401;28;20058;-47
2023/02/26 04:34:53;;;;;;;4.00;0.90;;;;;;;5.34;65.71;102085.69;4959762;28;20049;-47
2023/02/26 04:37:40;;;;;;;4.93;0.65;;;;;;;5.33;65.79;102088.69;4963039;28;20137;-47
2023/02/26 04:40:27;;;;;;;2.83;0.50;;;;;;;5.34;65.75;102085.69;4957860;28;20051;-47
2023/02/26 04:43:14;;;;;;;5.25;0.93;;;;;;;5.36;65.86;102094.44;4967097;28;20053;-47
2023/02/26 04:46:01;;;;;;;3.15;0.85;;;;;;;5.36;65.55;102094.44;4957751;28;20043;-47
2023/02/26 04:48:48;;;;;;;6.15;0.82;;;;;;;5.37;65.89;102089.78;4963734;28;20054;-47
2023/02/26 04:51:35;;;;;;;1.02;0.40;;;;;;;5.38;66.03;102097.72;4959531;28;20055;-47
2023/02/26 04:54:22;;;;;;;2.17;0.70;;;;;;;5.39;65.39;102088.41;4958371;28;20062;-47
2023/02/26 04:57:09;;;;;;;7.60;1.40;;;;;;;5.41;65.53;102093.59;4965222;28;20047;-49
2023/02/26 04:59:56;;;;;;;4.28;0.70;;;;;;;5.41;65.27;102091.69;4960333;28;20532;-49
2023/02/26 05:02:43;;;;;;;2.20;0.88;;;;;;;5.43;65.55;102100.47;4966376;28;20058;-50
2023/02/26 05:05:30;;;;;;;4.68;0.55;;;;;;;5.43;65.54;102103.22;4960563;28;20055;-48
2023/02/26 05:08:17;;;;;;;4.97;1.08;;;;;;;5.42;65.34;102098.84;4962566;28;20051;-47
2023/02/26 05:11:04;;;;;;;7.22;1.23;;;;;;;5.45;65.28;102105.69;4953296;28;20070;-47
2023/02/26 05:13:51;;;;;;;3.80;0.60;;;;;;;5.46;65.43;102108.16;4956171;28;20060;-47
2023/02/26 05:16:38;;;;;;;9.32;0.80;;;;;;;5.47;65.36;102118.06;4961339;28;20050;-47
2023/02/26 05:19:25;;;;;;;1.65;0.50;;;;;;;5.48;65.49;102114.19;4958147;28;20054;-48
2023/02/26 05:22:12;;;;;;;4.50;1.50;;;;;;;5.49;65.51;102131.50;4963638;28;20050;-47
2023/02/26 05:24:59;;;;;;;4.05;0.75;;;;;;;5.49;65.45;102117.75;4954281;28;20058;-48
2023/02/26 05:27:46;;;;;;;2.13;0.50;;;;;;;5.50;65.24;102123.00;4957019;28;20440;-47
2023/02/26 05:30:33;;;;;;;3.40;0.80;;;;;;;5.51;65.48;102129.28;4964225;28;20053;-47
2023/02/26 05:33:20;;;;;;;5.18;1.35;;;;;;;5.50;65.34;102138.66;4966429;28;20055;-48
2023/02/26 05:36:08;;;;;;;2.22;0.52;;;;;;;5.51;64.96;102119.13;4966247;28;20260;-52
2023/02/26 05:38:55;;;;;;;2.90;0.60;;;;;;;5.51;65.25;102121.88;4967974;28;20063;-47
2023/02/26 05:41:42;;;;;;;1.75;0.47;;;;;;;5.51;65.39;102126.53;4968832;28;20059;-47
2023/02/26 05:44:29;;;;;;;8.52;1.63;;;;;;;5.50;65.27;102114.75;4969055;28;20085;-47
2023/02/26 05:47:16;;;;;;;5.25;0.73;;;;;;;5.50;64.98;102123.00;4968683;28;20055;-47
2023/02/26 05:50:04;;;;;;;5.47;0.68;;;;;;;5.51;64.92;102137.53;4969242;28;20051;-47
2023/02/26 05:52:51;;;;;;;3.67;0.93;;;;;;;5.51;64.97;102143.84;4968058;28;20050;-50
2023/02/26 05:55:38;;;;;;;2.35;1.00;;;;;;;5.48;65.36;102141.66;4968369;28;20070;-47
2023/02/26 05:58:25;;;;;;;4.57;1.73;;;;;;;5.46;65.20;102151.28;4962144;28;20323;-53
2023/02/26 06:01:13;;;;;;;2.80;0.93;;;;;;;5.44;65.45;102156.22;4961549;28;20059;-48
2023/02/26 06:04:00;;;;;;;15.23;2.38;;;;;;;5.45;65.33;102146.91;4960032;28;20117;-47
2023/02/26 06:06:47;;;;;;;3.92;0.50;;;;;;;5.45;65.15;102166.91;4954646;28;20061;-49
2023/02/26 06:09:34;;;;;;;5.03;0.60;;;;;;;5.45;64.96;102161.44;4958569;28;20089;-47
2023/02/26 06:12:21;;;;;;;3.72;0.70;;;;;;;5.46;65.27;102165.00;4963203;28;20416;-47
2023/02/26 06:15:08;;;;;;;2.85;1.00;;;;;;;5.47;65.11;102166.66;4961628;28;20054;-47
2023/02/26 06:17:55;;;;;;;2.85;0.80;;;;;;;5.46;65.15;102159.50;4959616;28;20051;-47
2023/02/26 06:20:42;;;;;;;6.03;0.70;;;;;;;5.45;65.05;102160.63;4960225;28;20405;-51
2023/02/26 06:23:29;;;;;;;6.07;0.70;;;;;;;5.45;65.03;102164.16;4962764;28;20059;-47
2023/02/26 06:26:16;;;;;;;1.77;0.82;;;;;;;5.46;65.01;102160.34;4958190;28;20046;-52
2023/02/26 06:29:03;;;;;;;1.33;0.63;;;;;;;5.45;65.23;102164.16;4955672;28;20059;-47
2023/02/26 06:31:50;;;;;;;3.05;0.65;;;;;;;5.46;65.07;102174.06;4955799;28;20038;-48
2023/02/26 06:34:37;;;;;;;7.82;0.68;;;;;;;5.47;64.96;102181.22;4970401;28;20050;-52
2023/02/26 06:37:24;;;;;;;2.42;0.57;;;;;;;5.48;65.39;102185.59;4971771;28;20509;-49
2023/02/26 06:40:12;;;;;;;5.05;0.63;;;;;;;5.48;65.36;102185.59;4972389;28;20150;-47
2023/02/26 06:42:59;;;;;;;2.65;0.60;;;;;;;5.49;65.06;102183.69;4971803;28;20053;-47
2023/02/26 06:45:46;;;;;;;5.05;1.17;;;;;;;5.49;65.51;102181.75;4971167;28;20431;-47
2023/02/26 06:48:33;;;;;;;8.38;0.68;;;;;;;5.49;65.25;102181.75;4970130;28;20082;-48
2023/02/26 06:51:20;;;;;;;6.13;0.43;;;;;;;5.49;65.42;102184.50;4972088;28;20059;-47
2023/02/26 06:54:07;;;;;;;5.72;0.57;;;;;;;5.50;65.25;102179.84;4971067;28;20519;-47
2023/02/26 06:56:56;;;;;;;5.65;1.48;;;;;;;5.49;65.60;102191.91;4971292;28;20055;-47
2023/02/26 06:59:43;;;;;;;4.13;0.55;;;;;;;5.51;65.44;102192.47;4971428;28;20531;-47
2023/02/26 07:02:30;;;;;;;5.47;1.65;;;;;;;5.50;65.70;102197.16;4975331;28;20409;-47
2023/02/26 07:05:17;;;;;;;4.90;0.60;;;;;;;5.50;65.83;102205.41;4962981;28;20043;-49
2023/02/26 07:08:04;;;;;;;2.25;0.45;;;;;;;5.51;65.49;102201.53;4962665;28;20066;-54
2023/02/26 07:10:51;;;;;;;7.97;0.80;;;;;;;5.50;65.72;102205.41;4965462;28;20070;-47
2023/02/26 07:13:39;;;;;;;3.83;0.40;;;;;;;5.51;65.89;102223.50;4960846;28;20405;-47
2023/02/26 07:16:26;;;;;;;5.28;1.33;;;;;;;5.51;65.71;102223.50;4964323;28;20047;-47
2023/02/26 07:19:13;;;;;;;3.30;0.65;;;;;;;5.50;65.80;102224.63;4959009;28;20547;-47
2023/02/26 07:22:00;;;;;;;3.72;0.85;;;;;;;5.50;65.75;102223.78;4960624;28;20421;-47
2023/02/26 07:24:48;;;;;;;4.82;1.85;;;;;;;5.49;65.88;102222.97;4962509;28;20047;-47
2023/02/26 07:27:35;;;;;;;3.60;1.13;;;;;;;5.48;65.97;102235.03;4955277;28;20070;-50
2023/02/26 07:30:22;;;;;;;3.30;0.75;;;;;;;5.49;65.88;102247.69;4964734;28;20063;-49
2023/02/26 07:33:09;;;;;;;6.18;0.90;;;;;;;5.49;65.81;102253.19;4963120;28;20042;-49
2023/02/26 07:36:00;;;;;;;6.95;0.85;;;;;;;5.50;65.92;102265.00;4965447;28;20053;-52
2023/02/26 07:38:47;;;;;;;6.85;0.82;;;;;;;5.52;66.05;102269.13;4966573;28;20394;-47
2023/02/26 07:41:34;;;;;;;6.32;1.58;;;;;;;5.53;66.14;102276.25;4960175;28;20062;-47
2023/02/26 07:44:21;;;;;;;4.10;0.90;;;;;;;5.53;66.35;102269.94;4967241;28;20802;-47
2023/02/26 07:47:08;;;;;;;2.13;0.82;;;;;;;5.56;66.56;102268.56;4962276;28;20393;-50
2023/02/26 07:49:56;;;;;;;8.18;1.30;;;;;;;5.56;66.65;102266.63;4965969;28;20867;-47
2023/02/26 07:52:43;;;;;;;2.53;0.70;;;;;;;5.57;66.70;102270.19;4963591;28;20050;-53
2023/02/26 07:55:30;;;;;;;4.38;1.40;;;;;;;5.57;66.81;102275.69;4959700;28;20059;-47
2023/02/26 07:58:17;;;;;;;6.05;0.90;;;;;;;5.59;67.02;102290.81;4958276;28;20065;-48
2023/02/26 08:01:05;;;;;;;5.93;0.95;;;;;;;5.60;67.15;102292.47;4966281;28;20047;-47
2023/02/26 08:03:53;;;;;;;3.35;1.00;;;;;;;5.64;67.04;102303.75;4965144;28;20116;-47
2023/02/26 08:06:40;;;;;;;4.95;0.82;;;;;;;5.65;67.00;102294.38;4967222;28;20062;-47
2023/02/26 08:09:27;;;;;;;2.15;0.90;;;;;;;5.64;66.85;102298.25;4973466;28;20451;-47
2023/02/26 08:12:14;;;;;;;3.65;1.15;;;;;;;5.64;66.85;102295.50;4961832;28;20043;-46
2023/02/26 08:15:01;;;;;;;4.80;1.13;;;;;;;5.64;67.11;102299.03;4958020;28;20047;-47
2023/02/26 08:17:51;;;;;;;6.55;1.70;;;;;;;5.65;66.84;102308.13;4965318;28;20051;-46
2023/02/26 08:20:38;;;;;;;5.50;0.70;;;;;;;5.64;67.15;102304.53;4963852;28;20043;-45
2023/02/26 08:23:25;;;;;;;1.70;0.65;;;;;;;5.68;67.41;102315.81;4963812;28;20051;-46
2023/02/26 08:26:12;;;;;;;4.47;0.88;;;;;;;5.72;67.12;102323.22;4969202;28;20047;-46
2023/02/26 08:28:59;;;;;;;3.08;0.77;;;;;;;5.76;67.44;102326.25;4957949;28;20477;-46
2023/02/26 08:31:46;;;;;;;5.65;0.85;;;;;;;5.80;67.17;102335.63;4967781;28;20497;-48
2023/02/26 08:34:34;;;;;;;4.55;1.00;;;;;;;5.82;67.59;102341.66;4969532;28;20047;-50
2023/02/26 08:37:23;;;;;;;5.60;0.95;;;;;;;5.83;67.16;102340.53;4969447;28;20402;-48
2023/02/26 08:40:11;;;;;;;3.75;0.50;;;;;;;5.83;67.51;102348.78;4958469;28;20058;-47
2023/02/26 08:43:02;;;;;;;6.43;0.85;;;;;;;5.84;67.45;102354.03;4969066;28;20524;-46
2023/02/26 08:45:54;;;;;;;4.10;1.10;;;;;;;5.83;67.40;102352.38;4968852;28;20132;-47
2023/02/26 08:48:41;;;;;;;4.03;0.57;;;;;;;5.84;67.57;102353.19;4959595;28;20062;-46
2023/02/26 08:51:28;;;;;;;3.45;1.00;;;;;;;5.88;67.66;102357.06;4969540;28;20062;-46
2023/02/26 08:54:15;;;;;;;2.72;0.80;;;;;;;5.89;67.68;102356.81;4968572;28;20050;-47
2023/02/26 08:57:02;;;;;;;6.13;0.98;;;;;;;5.94;67.36;102364.22;4970042;28;20057;-46
2023/02/26 08:59:49;;;;;;;10.52;1.23;;;;;;;5.96;67.64;102364.75;4969177;28;20053;-49
2023/02/26 09:02:37;;;;;;;8.73;1.10;;;;;;;5.98;67.61;102370.84;4973509;28;20067;-46
2023/02/26 09:05:24;;;;;;;7.03;0.98;;;;;;;5.98;67.65;102374.38;4959641;28;20043;-46
2023/02/26 09:08:14;;;;;;;8.32;1.52;;;;;;;5.98;68.00;102359.84;4964401;28;20046;-50
2023/02/26 09:11:02;;;;;;;4.13;0.77;;;;;;;5.97;68.09;102352.69;4960647;28;20038;-46
2023/02/26 09:13:49;;;;;;;10.10;2.85;;;;;;;5.96;68.11;102360.09;4952126;28;20528;-47
2023/02/26 09:16:36;;;;;;;4.65;0.88;;;;;;;5.98;68.19;102362.59;4961390;28;20410;-47
2023/02/26 09:19:23;;;;;;;5.65;1.25;;;;;;;5.99;67.88;102373.28;4965686;28;20075;-46
2023/02/26 09:22:10;;;;;;;4.80;1.02;;;;;;;6.01;68.30;102373.84;4961160;28;20055;-48
2023/02/26 09:24:57;;;;;;;3.83;1.20;;;;;;;6.08;68.29;102381.81;4964974;28;20047;-53
2023/02/26 09:27:44;;;;;;;8.00;1.30;;;;;;;6.25;68.09;102379.59;4968326;28;20054;-46
2023/02/26 09:30:31;;;;;;;6.57;1.40;;;;;;;6.43;68.69;102379.06;4968363;28;20043;-46
2023/02/26 09:33:18;;;;;;;3.83;1.63;;;;;;;6.53;67.92;102387.28;4964960;28;20050;-47
2023/02/26 09:36:05;;;;;;;4.82;1.98;;;;;;;6.56;67.58;102394.97;4968721;28;20062;-48
2023/02/26 09:38:52;;;;;;;10.65;4.88;;;;;;;6.61;67.69;102392.22;4965216;28;20059;-49
2023/02/26 09:41:45;;;;;;;4.63;0.70;;;;;;;6.69;67.35;102413.66;4956112;28;20055;-49
2023/02/26 09:44:36;;;;;;;3.25;1.73;;;;;;;6.82;67.29;102417.75;4961160;28;20054;-47
2023/02/26 09:47:29;;;;;;;5.03;0.90;;;;;;;6.87;67.21;102422.41;4952546;28;20058;-46
2023/02/26 09:50:23;;;;;;;3.50;1.33;;;;;;;6.80;67.03;102416.38;4969507;28;20055;-48
2023/02/26 09:53:25;;;;;;;4.47;0.70;;;;;;;6.73;67.06;102412.00;4962961;28;20053;-45
2023/02/26 09:56:17;;;;;;;3.67;0.90;;;;;;;6.66;67.29;102419.72;4963448;28;20038;-45
2023/02/26 09:59:04;;;;;;;9.40;1.05;;;;;;;6.58;67.25;102431.28;4960593;28;20385;-45
2023/02/26 10:02:20;;;;;;;4.90;0.98;;;;;;;6.54;67.34;102432.94;4963256;28;20157;-45
2023/02/26 10:05:39;;;;;;;1.30;0.82;;;;;;;6.62;67.12;102424.13;4965661;28;20066;-47
2023/02/26 10:08:51;;;;;;;6.90;1.30;;;;;;;6.71;67.62;102427.13;4971436;28;20047;-48
2023/02/26 10:12:05;;;;;;;3.38;1.08;;;;;;;6.90;67.39;102438.38;4962332;28;20066;-46
2023/02/26 10:14:59;;;;;;;4.97;0.80;;;;;;;7.02;67.30;102441.63;4965840;28;20422;-50
2023/02/26 10:18:22;;;;;;;2.65;0.70;;;;;;;7.06;67.34;102448.25;4961510;28;20055;-47
2023/02/26 10:21:21;;;;;;;5.15;0.70;;;;;;;7.04;67.05;102462.28;4958586;28;20065;-49
2023/02/26 10:24:23;;;;;;;14.60;1.00;;;;;;;7.05;67.43;102465.88;4967744;28;20058;-48
2023/02/26 10:27:27;;;;;;;4.47;1.23;;;;;;;7.08;67.29;102473.56;4962510;28;20054;-48
2023/02/26 10:30:45;;;;;;;4.30;1.15;;;;;;;7.22;67.39;102480.16;4961417;28;20050;-45
2023/02/26 10:33:35;;;;;;;5.85;1.13;;;;;;;7.42;67.37;102490.25;4967424;28;20055;-50
2023/02/26 10:36:31;;;;;;;4.07;1.05;;;;;;;7.55;67.30;102490.47;4969545;28;20047;-47
2023/02/26 10:39:33;;;;;;;3.65;1.00;;;;;;;7.69;66.99;102474.97;4965512;28;20066;-46
2023/02/26 10:42:35;;;;;;;5.55;1.00;;;;;;;7.64;66.71;102487.97;4963891;28;20058;-49
2023/02/26 10:45:56;;;;;;;4.68;0.75;;;;;;;7.50;66.81;102487.75;4960303;28;20062;-45
2023/02/26 10:49:13;;;;;;;6.22;1.40;;;;;;;7.38;66.76;102487.25;4966273;28;20090;-46
2023/02/26 10:52:10;;;;;;;8.02;1.73;;;;;;;7.39;66.96;102490.84;4961784;28;20047;-46
2023/02/26 10:54:57;;;;;;;5.70;1.23;;;;;;;7.46;66.91;102485.84;4958840;28;20058;-48
2023/02/26 10:57:59;;;;;;;4.65;1.35;;;;;;;7.45;66.84;102496.03;4968308;28;20420;-47
2023/02/26 11:00:48;;;;;;;7.82;0.85;;;;;;;7.32;66.69;102485.63;4962791;28;20047;-49
2023/02/26 11:03:39;;;;;;;7.15;1.17;;;;;;;7.23;66.53;102490.88;4970654;28;20051;-48
2023/02/26 11:06:33;;;;;;;3.83;1.25;;;;;;;7.23;66.76;102487.28;4967013;28;20043;-48
2023/02/26 11:09:33;;;;;;;5.35;1.98;;;;;;;7.26;66.71;102497.75;4971072;28;20058;-49
2023/02/26 11:12:22;;;;;;;9.75;1.75;;;;;;;7.39;66.85;102499.91;4969090;28;20050;-46
2023/02/26 11:15:18;;;;;;;6.70;0.85;;;;;;;7.51;66.77;102494.91;4961051;28;20134;-46
2023/02/26 11:18:12;;;;;;;16.92;1.25;;;;;;;7.69;66.46;102497.03;4962500;28;20408;-47
2023/02/26 11:20:59;;;;;;;10.02;2.15;;;;;;;7.92;66.19;102499.09;4962559;28;20058;-53
2023/02/26 11:23:49;;;;;;;6.18;1.15;;;;;;;8.02;66.08;102497.41;4968890;28;20480;-48
2023/02/26 11:26:38;;;;;;;5.25;2.17;;;;;;;7.97;65.95;102493.56;4968696;28;20058;-47
2023/02/26 11:29:25;;;;;;;8.60;1.73;;;;;;;7.80;65.62;102498.63;4968760;28;20283;-52
2023/02/26 11:32:31;;;;;;;4.78;1.00;;;;;;;7.62;66.07;102504.78;4967955;28;20051;-47
2023/02/26 11:35:22;;;;;;;3.95;1.35;;;;;;;7.55;65.94;102500.66;4963305;28;20081;-47
2023/02/26 11:38:17;;;;;;;6.97;0.95;;;;;;;7.58;65.95;102497.34;4960148;28;20039;-46
2023/02/26 11:41:05;;;;;;;4.22;0.93;;;;;;;7.69;65.83;102508.06;4965467;28;20516;-46
2023/02/26 11:44:35;;;;;;;10.13;2.28;;;;;;;7.77;65.75;102504.72;4967855;28;20066;-49
2023/02/26 11:47:28;;;;;;;4.30;0.90;;;;;;;7.86;65.57;102497.47;4970868;28;20059;-46
2023/02/26 11:50:18;;;;;;;;;;;;;;;7.92;65.49;102506.56;4970668;28;20097;-45
2023/02/26 11:53:14;;;;;;;2.40;1.30;;;;;;;7.97;65.63;102499.06;4971669;28;19922;-46
2023/02/26 11:56:08;;;;;;;9.18;1.58;;;;;;;8.03;65.42;102497.09;4970076;28;20051;-46
2023/02/26 11:59:00;;;;;;;4.07;1.38;;;;;;;7.98;65.35;102497.97;4969786;28;20070;-46
2023/02/26 12:01:48;;;;;;;5.22;1.05;;;;;;;8.00;65.65;102497.69;4972938;28;20528;-46
2023/02/26 12:04:41;;;;;;;4.78;1.20;;;;;;;8.06;65.74;102501.22;4961125;28;20058;-46
2023/02/26 12:07:29;;;;;;;5.45;1.63;;;;;;;8.18;65.55;102512.75;4968205;28;20386;-46
2023/02/26 12:10:24;;;;;;;11.23;1.48;;;;;;;8.24;66.10;102517.94;4967977;28;20046;-46
2023/02/26 12:13:27;;;;;;;5.30;1.27;;;;;;;8.24;65.43;102508.84;4963123;28;20047;-46
2023/02/26 12:16:26;;;;;;;3.60;0.88;;;;;;;8.19;65.33;102500.59;4969588;28;20050;-46
2023/02/26 12:19:32;;;;;;;5.35;1.10;;;;;;;8.16;65.52;102498.41;4968903;28;20409;-45
2023/02/26 12:22:38;;;;;;;7.32;2.17;;;;;;;8.21;65.50;102503.88;4957189;28;20061;-49
2023/02/26 12:25:50;;;;;;;7.90;1.40;;;;;;;8.20;65.47;102508.59;4969423;28;20587;-46
2023/02/26 12:29:09;;;;;;;6.20;1.35;;;;;;;8.15;65.36;102505.03;4962698;28;20428;-48
2023/02/26 12:32:12;;;;;;;7.43;1.60;;;;;;;8.16;65.50;102506.69;4969487;28;20050;-51
2023/02/26 12:35:24;;;;;;;3.40;1.10;;;;;;;8.14;65.21;102503.38;4969285;28;20122;-45
2023/02/26 12:38:27;;;;;;;7.17;1.30;;;;;;;8.04;65.26;102509.81;4970754;28;20061;-46
2023/02/26 12:41:39;;;;;;;6.50;1.25;;;;;;;7.99;65.28;102493.28;4969188;28;21064;-48
2023/02/26 12:44:51;;;;;;;12.07;1.53;;;;;;;8.05;65.34;102494.09;4968077;28;20058;-48
2023/02/26 12:47:50;;;;;;;10.32;1.38;;;;;;;8.25;65.44;102514.06;4963969;28;20057;-46
2023/02/26 12:50:39;;;;;;;5.95;1.00;;;;;;;8.35;65.03;102507.69;4969203;28;20058;-46
2023/02/26 12:53:32;;;;;;;10.68;1.80;;;;;;;8.32;64.92;102499.97;4959678;28;20050;-47
2023/02/26 12:56:44;;;;;;;7.70;1.33;;;;;;;8.23;64.27;102497.00;4970290;28;20517;-47
2023/02/26 12:59:50;;;;;;;7.93;1.02;;;;;;;8.17;64.33;102505.56;4956408;28;20074;-46
2023/02/26 13:03:08;;;;;;;7.13;1.10;;;;;;;8.09;64.48;102495.97;4965571;28;20428;-47
2023/02/26 13:06:21;;;;;;;10.13;1.30;;;;;;;8.02;64.50;102495.47;4956231;28;20062;-47
2023/02/26 13:09:08;;;;;;;;;;;;;;;7.96;64.28;102496.63;4969709;28;20046;-46
2023/02/26 13:12:08;;;;;;;6.90;1.30;;;;;;;7.94;64.59;102493.31;4957771;28;19929;-46
2023/02/26 13:15:25;;;;;;;8.07;1.75;;;;;;;7.95;64.51;102501.31;4965716;28;20050;-49
2023/02/26 13:18:58;;;;;;;13.32;1.33;;;;;;;7.93;64.51;102497.19;4963749;28;20420;-46
2023/02/26 13:22:14;;;;;;;4.95;1.20;;;;;;;7.91;64.50;102499.41;4974192;28;20057;-47
2023/02/26 13:25:07;;;;;;;6.63;1.67;;;;;;;7.89;64.79;102505.19;4964205;28;20042;-46
2023/02/26 13:27:37;;;;;;;3.53;1.30;;;;;;;7.86;64.85;102497.47;4964443;28;20062;-47
2023/02/26 13:30:24;;;;;;;4.82;1.73;;;;;;;7.82;64.86;102498.34;4973702;28;20508;-47
2023/02/26 13:32:58;;;;;;;7.68;1.30;;;;;;;7.75;65.13;102501.44;4959939;28;20046;-47
2023/02/26 13:35:40;;;;;;;13.25;1.48;;;;;;;7.87;65.21;102496.38;4959127;28;20887;-47